sensor_id;sensor_type;location;lat;lon;timestamp;P1;durP1;ratioP1;P2;durP2;ratioP2
76228;SDS011;65021;53.174;18.160;2023-07-13T00:01:48;11.20;;;6.70;;
76228;SDS011;65021;53.174;18.160;2023-07-13T00:04:24;10.00;;;5.20;;
76228;SDS011;65021;53.174;18.160;2023-07-13T00:06:51;10.80;;;5.50;;
76228;SDS011;65021;53.174;18.160;2023-07-13T00:09:18;10.20;;;5.70;;
76228;SDS011;65021;53.174;18.160;2023-07-13T00:11:49;11.30;;;5.20;;
76228;SDS011;65021;53.174;18.160;2023-07-13T00:14:18;10.10;;;5.80;;
76228;SDS011;65021;53.174;18.160;2023-07-13T00:16:45;7.90;;;4.80;;
76228;SDS011;65021;53.174;18.160;2023-07-13T00:19:12;7.00;;;4.70;;
76228;SDS011;65021;53.174;18.160;2023-07-13T00:21:39;7.70;;;4.60;;
76228;SDS011;65021;53.174;18.160;2023-07-13T00:38:49;8.00;;;4.80;;
76228;SDS011;65021;53.174;18.160;2023-07-13T00:41:16;9.30;;;5.40;;
76228;SDS011;65021;53.174;18.160;2023-07-13T00:43:42;8.00;;;4.90;;
76228;SDS011;65021;53.174;18.160;2023-07-13T00:46:11;8.60;;;4.80;;
76228;SDS011;65021;53.174;18.160;2023-07-13T00:48:44;11.70;;;5.30;;
76228;SDS011;65021;53.174;18.160;2023-07-13T00:51:13;10.80;;;5.50;;
76228;SDS011;65021;53.174;18.160;2023-07-13T00:53:42;8.40;;;5.10;;
76228;SDS011;65021;53.174;18.160;2023-07-13T00:56:09;9.70;;;5.30;;
76228;SDS011;65021;53.174;18.160;2023-07-13T00:58:37;8.40;;;4.80;;
76228;SDS011;65021;53.174;18.160;2023-07-13T01:01:04;9.50;;;4.80;;
76228;SDS011;65021;53.174;18.160;2023-07-13T01:03:30;9.60;;;5.60;;
76228;SDS011;65021;53.174;18.160;2023-07-13T01:05:58;8.60;;;4.80;;
76228;SDS011;65021;53.174;18.160;2023-07-13T01:08:25;13.00;;;6.10;;
76228;SDS011;65021;53.174;18.160;2023-07-13T01:10:55;11.10;;;6.20;;
76228;SDS011;65021;53.174;18.160;2023-07-13T01:13:23;11.00;;;6.70;;
76228;SDS011;65021;53.174;18.160;2023-07-13T01:15:51;7.30;;;5.30;;
76228;SDS011;65021;53.174;18.160;2023-07-13T01:18:22;8.20;;;5.30;;
76228;SDS011;65021;53.174;18.160;2023-07-13T01:20:55;7.20;;;5.30;;
76228;SDS011;65021;53.174;18.160;2023-07-13T01:23:24;7.70;;;4.50;;
76228;SDS011;65021;53.174;18.160;2023-07-13T01:25:52;7.10;;;4.80;;
76228;SDS011;65021;53.174;18.160;2023-07-13T01:28:19;10.20;;;4.70;;
76228;SDS011;65021;53.174;18.160;2023-07-13T01:30:46;8.30;;;4.50;;
76228;SDS011;65021;53.174;18.160;2023-07-13T01:33:17;8.40;;;5.20;;
76228;SDS011;65021;53.174;18.160;2023-07-13T01:35:44;11.20;;;5.50;;
76228;SDS011;65021;53.174;18.160;2023-07-13T01:38:16;7.60;;;5.20;;
76228;SDS011;65021;53.174;18.160;2023-07-13T01:40:44;7.90;;;5.10;;
76228;SDS011;65021;53.174;18.160;2023-07-13T01:43:10;7.80;;;4.70;;
76228;SDS011;65021;53.174;18.160;2023-07-13T01:45:37;11.80;;;5.30;;
76228;SDS011;65021;53.174;18.160;2023-07-13T01:48:04;9.80;;;4.90;;
76228;SDS011;65021;53.174;18.160;2023-07-13T01:50:33;8.50;;;4.40;;
76228;SDS011;65021;53.174;18.160;2023-07-13T01:53:00;9.60;;;4.80;;
76228;SDS011;65021;53.174;18.160;2023-07-13T01:55:27;9.00;;;5.00;;
76228;SDS011;65021;53.174;18.160;2023-07-13T01:57:55;7.90;;;5.20;;
76228;SDS011;65021;53.174;18.160;2023-07-13T02:00:22;8.80;;;4.80;;
76228;SDS011;65021;53.174;18.160;2023-07-13T02:02:50;8.90;;;5.10;;
76228;SDS011;65021;53.174;18.160;2023-07-13T02:05:17;9.10;;;5.40;;
76228;SDS011;65021;53.174;18.160;2023-07-13T02:07:44;9.90;;;5.00;;
76228;SDS011;65021;53.174;18.160;2023-07-13T02:10:11;8.10;;;5.00;;
76228;SDS011;65021;53.174;18.160;2023-07-13T02:12:38;7.70;;;5.10;;
76228;SDS011;65021;53.174;18.160;2023-07-13T02:15:05;10.10;;;5.90;;
76228;SDS011;65021;53.174;18.160;2023-07-13T02:17:33;8.70;;;5.10;;
76228;SDS011;65021;53.174;18.160;2023-07-13T02:20:01;7.50;;;5.00;;
76228;SDS011;65021;53.174;18.160;2023-07-13T02:22:29;7.50;;;4.10;;
76228;SDS011;65021;53.174;18.160;2023-07-13T02:24:56;8.50;;;5.00;;
76228;SDS011;65021;53.174;18.160;2023-07-13T02:27:22;8.40;;;4.80;;
76228;SDS011;65021;53.174;18.160;2023-07-13T02:29:49;10.00;;;5.30;;
76228;SDS011;65021;53.174;18.160;2023-07-13T02:32:17;9.60;;;6.00;;
76228;SDS011;65021;53.174;18.160;2023-07-13T02:34:44;8.60;;;6.00;;
76228;SDS011;65021;53.174;18.160;2023-07-13T02:37:11;8.70;;;4.20;;
76228;SDS011;65021;53.174;18.160;2023-07-13T02:39:38;7.50;;;4.90;;
76228;SDS011;65021;53.174;18.160;2023-07-13T02:42:04;9.50;;;4.10;;
76228;SDS011;65021;53.174;18.160;2023-07-13T02:44:31;7.40;;;4.90;;
76228;SDS011;65021;53.174;18.160;2023-07-13T02:46:58;10.30;;;5.40;;
76228;SDS011;65021;53.174;18.160;2023-07-13T02:49:24;8.90;;;4.50;;
76228;SDS011;65021;53.174;18.160;2023-07-13T02:51:51;8.90;;;4.40;;
76228;SDS011;65021;53.174;18.160;2023-07-13T02:54:17;7.40;;;4.50;;
76228;SDS011;65021;53.174;18.160;2023-07-13T02:56:44;9.70;;;5.40;;
76228;SDS011;65021;53.174;18.160;2023-07-13T02:59:10;9.30;;;4.90;;
76228;SDS011;65021;53.174;18.160;2023-07-13T03:01:38;7.80;;;4.80;;
76228;SDS011;65021;53.174;18.160;2023-07-13T03:04:04;10.20;;;5.60;;
76228;SDS011;65021;53.174;18.160;2023-07-13T03:06:32;7.90;;;5.10;;
76228;SDS011;65021;53.174;18.160;2023-07-13T03:08:59;9.10;;;5.50;;
76228;SDS011;65021;53.174;18.160;2023-07-13T03:11:26;10.30;;;6.00;;
76228;SDS011;65021;53.174;18.160;2023-07-13T03:13:53;9.80;;;5.90;;
76228;SDS011;65021;53.174;18.160;2023-07-13T03:16:20;10.70;;;5.50;;
76228;SDS011;65021;53.174;18.160;2023-07-13T03:18:47;6.50;;;4.00;;
76228;SDS011;65021;53.174;18.160;2023-07-13T03:21:14;8.20;;;4.90;;
76228;SDS011;65021;53.174;18.160;2023-07-13T03:23:42;10.70;;;5.00;;
76228;SDS011;65021;53.174;18.160;2023-07-13T03:26:10;9.10;;;4.90;;
76228;SDS011;65021;53.174;18.160;2023-07-13T03:28:39;8.00;;;5.10;;
76228;SDS011;65021;53.174;18.160;2023-07-13T03:31:07;11.90;;;5.10;;
76228;SDS011;65021;53.174;18.160;2023-07-13T03:33:37;7.40;;;4.60;;
76228;SDS011;65021;53.174;18.160;2023-07-13T03:36:04;10.20;;;5.80;;
76228;SDS011;65021;53.174;18.160;2023-07-13T03:38:32;8.00;;;4.40;;
76228;SDS011;65021;53.174;18.160;2023-07-13T03:40:59;8.00;;;4.70;;
76228;SDS011;65021;53.174;18.160;2023-07-13T03:43:26;7.80;;;4.50;;
76228;SDS011;65021;53.174;18.160;2023-07-13T03:45:53;7.80;;;4.30;;
76228;SDS011;65021;53.174;18.160;2023-07-13T03:48:19;8.90;;;5.10;;
76228;SDS011;65021;53.174;18.160;2023-07-13T03:50:46;9.30;;;5.40;;
76228;SDS011;65021;53.174;18.160;2023-07-13T03:53:13;8.60;;;5.80;;
76228;SDS011;65021;53.174;18.160;2023-07-13T03:55:40;9.40;;;4.90;;
76228;SDS011;65021;53.174;18.160;2023-07-13T03:58:23;8.40;;;5.10;;
76228;SDS011;65021;53.174;18.160;2023-07-13T04:01:17;9.90;;;5.50;;
76228;SDS011;65021;53.174;18.160;2023-07-13T04:03:45;7.20;;;4.80;;
76228;SDS011;65021;53.174;18.160;2023-07-13T04:06:17;8.40;;;4.50;;
76228;SDS011;65021;53.174;18.160;2023-07-13T04:08:53;7.90;;;4.20;;
76228;SDS011;65021;53.174;18.160;2023-07-13T04:11:23;9.40;;;4.60;;
76228;SDS011;65021;53.174;18.160;2023-07-13T04:13:51;8.80;;;4.40;;
76228;SDS011;65021;53.174;18.160;2023-07-13T04:16:18;9.90;;;4.40;;
76228;SDS011;65021;53.174;18.160;2023-07-13T04:18:46;8.50;;;4.90;;
76228;SDS011;65021;53.174;18.160;2023-07-13T04:23:41;7.60;;;5.10;;
76228;SDS011;65021;53.174;18.160;2023-07-13T04:26:07;9.10;;;4.60;;
76228;SDS011;65021;53.174;18.160;2023-07-13T04:28:34;8.00;;;4.10;;
76228;SDS011;65021;53.174;18.160;2023-07-13T04:31:01;7.70;;;4.10;;
76228;SDS011;65021;53.174;18.160;2023-07-13T04:33:27;7.20;;;3.90;;
76228;SDS011;65021;53.174;18.160;2023-07-13T04:35:54;6.80;;;4.40;;
76228;SDS011;65021;53.174;18.160;2023-07-13T04:38:29;7.30;;;3.70;;
76228;SDS011;65021;53.174;18.160;2023-07-13T04:41:01;9.30;;;3.80;;
76228;SDS011;65021;53.174;18.160;2023-07-13T04:43:30;7.90;;;5.00;;
76228;SDS011;65021;53.174;18.160;2023-07-13T04:46:02;9.10;;;4.80;;
76228;SDS011;65021;53.174;18.160;2023-07-13T04:48:39;8.80;;;4.70;;
76228;SDS011;65021;53.174;18.160;2023-07-13T04:51:05;9.10;;;4.00;;
76228;SDS011;65021;53.174;18.160;2023-07-13T04:53:33;9.40;;;3.40;;
76228;SDS011;65021;53.174;18.160;2023-07-13T04:56:00;7.20;;;3.40;;
76228;SDS011;65021;53.174;18.160;2023-07-13T04:58:28;7.80;;;3.10;;
76228;SDS011;65021;53.174;18.160;2023-07-13T05:01:01;6.60;;;2.50;;
76228;SDS011;65021;53.174;18.160;2023-07-13T05:03:29;6.90;;;2.80;;
76228;SDS011;65021;53.174;18.160;2023-07-13T05:06:04;6.60;;;2.70;;
76228;SDS011;65021;53.174;18.160;2023-07-13T05:08:32;7.40;;;2.70;;
76228;SDS011;65021;53.174;18.160;2023-07-13T05:11:00;4.40;;;2.60;;
76228;SDS011;65021;53.174;18.160;2023-07-13T05:13:27;8.00;;;2.50;;
76228;SDS011;65021;53.174;18.160;2023-07-13T05:16:00;7.20;;;2.30;;
76228;SDS011;65021;53.174;18.160;2023-07-13T05:18:29;6.60;;;2.70;;
76228;SDS011;65021;53.174;18.160;2023-07-13T05:20:59;9.40;;;2.80;;
76228;SDS011;65021;53.174;18.160;2023-07-13T05:23:30;5.90;;;2.60;;
76228;SDS011;65021;53.174;18.160;2023-07-13T05:26:01;4.90;;;1.90;;
76228;SDS011;65021;53.174;18.160;2023-07-13T05:28:29;5.00;;;2.10;;
76228;SDS011;65021;53.174;18.160;2023-07-13T05:30:57;7.10;;;3.00;;
76228;SDS011;65021;53.174;18.160;2023-07-13T05:33:24;8.20;;;3.50;;
76228;SDS011;65021;53.174;18.160;2023-07-13T05:35:51;8.30;;;3.30;;
76228;SDS011;65021;53.174;18.160;2023-07-13T05:38:18;7.80;;;4.40;;
76228;SDS011;65021;53.174;18.160;2023-07-13T05:40:44;8.40;;;3.10;;
76228;SDS011;65021;53.174;18.160;2023-07-13T05:43:12;9.00;;;2.90;;
76228;SDS011;65021;53.174;18.160;2023-07-13T05:45:39;3.80;;;1.80;;
76228;SDS011;65021;53.174;18.160;2023-07-13T05:48:06;5.70;;;2.20;;
76228;SDS011;65021;53.174;18.160;2023-07-13T05:50:33;7.00;;;2.80;;
76228;SDS011;65021;53.174;18.160;2023-07-13T05:52:59;7.40;;;2.30;;
76228;SDS011;65021;53.174;18.160;2023-07-13T05:55:26;4.90;;;1.60;;
76228;SDS011;65021;53.174;18.160;2023-07-13T05:57:52;5.80;;;1.90;;
76228;SDS011;65021;53.174;18.160;2023-07-13T06:00:19;5.90;;;2.10;;
76228;SDS011;65021;53.174;18.160;2023-07-13T06:02:46;6.30;;;2.50;;
76228;SDS011;65021;53.174;18.160;2023-07-13T06:05:13;7.70;;;3.00;;
76228;SDS011;65021;53.174;18.160;2023-07-13T06:07:39;5.70;;;2.30;;
76228;SDS011;65021;53.174;18.160;2023-07-13T06:10:07;6.10;;;2.70;;
76228;SDS011;65021;53.174;18.160;2023-07-13T06:12:34;6.20;;;2.80;;
76228;SDS011;65021;53.174;18.160;2023-07-13T06:15:00;6.60;;;2.50;;
76228;SDS011;65021;53.174;18.160;2023-07-13T06:17:27;8.50;;;2.20;;
76228;SDS011;65021;53.174;18.160;2023-07-13T06:19:54;6.60;;;2.20;;
76228;SDS011;65021;53.174;18.160;2023-07-13T06:22:20;7.30;;;3.10;;
76228;SDS011;65021;53.174;18.160;2023-07-13T06:24:47;6.00;;;2.60;;
76228;SDS011;65021;53.174;18.160;2023-07-13T06:27:13;6.30;;;2.60;;
76228;SDS011;65021;53.174;18.160;2023-07-13T06:29:40;5.90;;;2.80;;
76228;SDS011;65021;53.174;18.160;2023-07-13T06:32:06;6.50;;;2.20;;
76228;SDS011;65021;53.174;18.160;2023-07-13T06:34:34;7.40;;;2.30;;
76228;SDS011;65021;53.174;18.160;2023-07-13T06:37:00;5.10;;;1.60;;
76228;SDS011;65021;53.174;18.160;2023-07-13T06:39:27;6.80;;;2.10;;
76228;SDS011;65021;53.174;18.160;2023-07-13T06:41:53;5.20;;;2.00;;
76228;SDS011;65021;53.174;18.160;2023-07-13T06:44:20;8.40;;;2.40;;
76228;SDS011;65021;53.174;18.160;2023-07-13T06:46:46;6.10;;;1.90;;
76228;SDS011;65021;53.174;18.160;2023-07-13T06:49:13;8.40;;;2.30;;
76228;SDS011;65021;53.174;18.160;2023-07-13T06:51:39;6.50;;;2.10;;
76228;SDS011;65021;53.174;18.160;2023-07-13T06:54:06;7.20;;;2.30;;
76228;SDS011;65021;53.174;18.160;2023-07-13T06:56:32;7.10;;;2.30;;
76228;SDS011;65021;53.174;18.160;2023-07-13T06:58:59;6.60;;;2.10;;
76228;SDS011;65021;53.174;18.160;2023-07-13T07:01:25;5.00;;;1.80;;
76228;SDS011;65021;53.174;18.160;2023-07-13T07:03:52;6.20;;;2.10;;
76228;SDS011;65021;53.174;18.160;2023-07-13T07:06:20;6.80;;;2.00;;
76228;SDS011;65021;53.174;18.160;2023-07-13T07:08:50;5.40;;;1.90;;
76228;SDS011;65021;53.174;18.160;2023-07-13T07:11:18;6.70;;;2.10;;
76228;SDS011;65021;53.174;18.160;2023-07-13T07:13:48;6.80;;;2.00;;
76228;SDS011;65021;53.174;18.160;2023-07-13T07:16:15;7.00;;;2.10;;
76228;SDS011;65021;53.174;18.160;2023-07-13T07:18:42;5.00;;;1.90;;
76228;SDS011;65021;53.174;18.160;2023-07-13T07:21:09;5.80;;;2.10;;
76228;SDS011;65021;53.174;18.160;2023-07-13T07:23:36;5.70;;;1.80;;
76228;SDS011;65021;53.174;18.160;2023-07-13T07:26:03;5.40;;;1.80;;
76228;SDS011;65021;53.174;18.160;2023-07-13T07:28:29;7.70;;;2.00;;
76228;SDS011;65021;53.174;18.160;2023-07-13T07:30:57;5.60;;;1.80;;
76228;SDS011;65021;53.174;18.160;2023-07-13T07:33:24;7.70;;;2.30;;
76228;SDS011;65021;53.174;18.160;2023-07-13T07:35:51;6.40;;;2.20;;
76228;SDS011;65021;53.174;18.160;2023-07-13T07:38:18;6.90;;;1.80;;
76228;SDS011;65021;53.174;18.160;2023-07-13T07:40:44;7.40;;;1.80;;
76228;SDS011;65021;53.174;18.160;2023-07-13T07:43:11;6.90;;;1.80;;
76228;SDS011;65021;53.174;18.160;2023-07-13T07:45:39;5.40;;;1.60;;
76228;SDS011;65021;53.174;18.160;2023-07-13T07:48:06;6.20;;;2.00;;
76228;SDS011;65021;53.174;18.160;2023-07-13T07:50:33;4.70;;;1.10;;
76228;SDS011;65021;53.174;18.160;2023-07-13T07:52:59;7.00;;;1.90;;
76228;SDS011;65021;53.174;18.160;2023-07-13T07:55:28;4.40;;;1.50;;
76228;SDS011;65021;53.174;18.160;2023-07-13T07:57:56;6.60;;;2.10;;
76228;SDS011;65021;53.174;18.160;2023-07-13T08:00:22;8.00;;;2.20;;
76228;SDS011;65021;53.174;18.160;2023-07-13T08:02:49;5.40;;;1.90;;
76228;SDS011;65021;53.174;18.160;2023-07-13T08:05:15;6.20;;;1.70;;
76228;SDS011;65021;53.174;18.160;2023-07-13T08:07:42;4.20;;;1.50;;
76228;SDS011;65021;53.174;18.160;2023-07-13T08:10:09;4.30;;;1.70;;
76228;SDS011;65021;53.174;18.160;2023-07-13T08:12:36;6.10;;;1.70;;
76228;SDS011;65021;53.174;18.160;2023-07-13T08:15:04;3.70;;;1.40;;
76228;SDS011;65021;53.174;18.160;2023-07-13T08:17:35;4.40;;;1.40;;
76228;SDS011;65021;53.174;18.160;2023-07-13T08:20:01;4.80;;;1.50;;
76228;SDS011;65021;53.174;18.160;2023-07-13T08:22:28;5.10;;;1.60;;
76228;SDS011;65021;53.174;18.160;2023-07-13T08:24:54;4.30;;;1.50;;
76228;SDS011;65021;53.174;18.160;2023-07-13T08:27:22;6.10;;;1.70;;
76228;SDS011;65021;53.174;18.160;2023-07-13T08:29:50;4.70;;;1.60;;
76228;SDS011;65021;53.174;18.160;2023-07-13T08:32:17;5.00;;;1.50;;
76228;SDS011;65021;53.174;18.160;2023-07-13T08:34:45;4.80;;;1.50;;
76228;SDS011;65021;53.174;18.160;2023-07-13T08:37:11;5.50;;;2.10;;
76228;SDS011;65021;53.174;18.160;2023-07-13T08:39:38;5.20;;;2.30;;
76228;SDS011;65021;53.174;18.160;2023-07-13T08:42:06;6.00;;;1.80;;
76228;SDS011;65021;53.174;18.160;2023-07-13T08:47:15;4.50;;;1.30;;
76228;SDS011;65021;53.174;18.160;2023-07-13T08:49:43;6.20;;;1.60;;
76228;SDS011;65021;53.174;18.160;2023-07-13T08:52:12;5.10;;;1.70;;
76228;SDS011;65021;53.174;18.160;2023-07-13T08:55:05;4.20;;;1.70;;
76228;SDS011;65021;53.174;18.160;2023-07-13T08:57:39;3.60;;;1.50;;
76228;SDS011;65021;53.174;18.160;2023-07-13T09:00:11;4.60;;;2.00;;
76228;SDS011;65021;53.174;18.160;2023-07-13T09:02:42;3.60;;;1.60;;
76228;SDS011;65021;53.174;18.160;2023-07-13T09:05:18;3.40;;;1.50;;
76228;SDS011;65021;53.174;18.160;2023-07-13T09:10:43;4.60;;;1.80;;
76228;SDS011;65021;53.174;18.160;2023-07-13T09:16:09;3.80;;;1.40;;
76228;SDS011;65021;53.174;18.160;2023-07-13T09:18:38;7.30;;;2.00;;
76228;SDS011;65021;53.174;18.160;2023-07-13T09:21:10;4.90;;;1.40;;
76228;SDS011;65021;53.174;18.160;2023-07-13T09:23:41;5.80;;;1.40;;
76228;SDS011;65021;53.174;18.160;2023-07-13T09:26:12;8.60;;;1.90;;
76228;SDS011;65021;53.174;18.160;2023-07-13T09:34:25;5.90;;;1.50;;
76228;SDS011;65021;53.174;18.160;2023-07-13T09:36:52;7.30;;;1.80;;
76228;SDS011;65021;53.174;18.160;2023-07-13T09:42:15;4.80;;;1.50;;
76228;SDS011;65021;53.174;18.160;2023-07-13T09:47:19;6.30;;;1.90;;
76228;SDS011;65021;53.174;18.160;2023-07-13T09:49:56;5.40;;;1.60;;
76228;SDS011;65021;53.174;18.160;2023-07-13T09:52:25;5.50;;;1.80;;
76228;SDS011;65021;53.174;18.160;2023-07-13T09:54:54;7.10;;;1.50;;
76228;SDS011;65021;53.174;18.160;2023-07-13T09:57:26;5.10;;;1.60;;
76228;SDS011;65021;53.174;18.160;2023-07-13T10:02:27;3.90;;;1.20;;
76228;SDS011;65021;53.174;18.160;2023-07-13T10:05:02;3.40;;;1.00;;
76228;SDS011;65021;53.174;18.160;2023-07-13T10:07:31;3.60;;;1.20;;
76228;SDS011;65021;53.174;18.160;2023-07-13T10:10:13;2.80;;;1.10;;
76228;SDS011;65021;53.174;18.160;2023-07-13T10:12:44;3.80;;;1.40;;
76228;SDS011;65021;53.174;18.160;2023-07-13T10:15:15;3.30;;;1.20;;
76228;SDS011;65021;53.174;18.160;2023-07-13T10:17:47;4.00;;;1.20;;
76228;SDS011;65021;53.174;18.160;2023-07-13T10:20:16;4.90;;;1.50;;
76228;SDS011;65021;53.174;18.160;2023-07-13T10:22:45;5.00;;;1.50;;
76228;SDS011;65021;53.174;18.160;2023-07-13T10:25:17;4.50;;;1.50;;
76228;SDS011;65021;53.174;18.160;2023-07-13T10:27:47;4.70;;;1.40;;
76228;SDS011;65021;53.174;18.160;2023-07-13T10:30:24;7.80;;;1.80;;
76228;SDS011;65021;53.174;18.160;2023-07-13T10:32:58;4.00;;;1.60;;
76228;SDS011;65021;53.174;18.160;2023-07-13T10:35:28;6.80;;;1.80;;
76228;SDS011;65021;53.174;18.160;2023-07-13T10:43:22;5.70;;;1.60;;
76228;SDS011;65021;53.174;18.160;2023-07-13T10:45:53;7.80;;;1.60;;
76228;SDS011;65021;53.174;18.160;2023-07-13T10:48:21;7.20;;;1.80;;
76228;SDS011;65021;53.174;18.160;2023-07-13T10:50:50;5.10;;;1.70;;
76228;SDS011;65021;53.174;18.160;2023-07-13T10:53:20;5.70;;;1.40;;
76228;SDS011;65021;53.174;18.160;2023-07-13T10:58:32;5.20;;;1.60;;
76228;SDS011;65021;53.174;18.160;2023-07-13T11:01:06;4.10;;;1.80;;
76228;SDS011;65021;53.174;18.160;2023-07-13T11:19:54;4.20;;;1.40;;
76228;SDS011;65021;53.174;18.160;2023-07-13T11:22:52;7.40;;;1.80;;
76228;SDS011;65021;53.174;18.160;2023-07-13T11:25:34;5.70;;;1.80;;
76228;SDS011;65021;53.174;18.160;2023-07-13T11:28:12;6.70;;;1.60;;
76228;SDS011;65021;53.174;18.160;2023-07-13T11:33:19;4.80;;;1.50;;
76228;SDS011;65021;53.174;18.160;2023-07-13T11:38:33;5.30;;;1.60;;
76228;SDS011;65021;53.174;18.160;2023-07-13T11:41:19;4.20;;;1.70;;
76228;SDS011;65021;53.174;18.160;2023-07-13T11:43:49;3.80;;;1.60;;
76228;SDS011;65021;53.174;18.160;2023-07-13T11:46:20;6.90;;;1.70;;
76228;SDS011;65021;53.174;18.160;2023-07-13T11:48:49;3.90;;;1.50;;
76228;SDS011;65021;53.174;18.160;2023-07-13T11:51:19;5.40;;;1.90;;
76228;SDS011;65021;53.174;18.160;2023-07-13T11:53:50;5.60;;;2.10;;
76228;SDS011;65021;53.174;18.160;2023-07-13T11:56:18;5.90;;;1.80;;
76228;SDS011;65021;53.174;18.160;2023-07-13T11:58:47;3.50;;;1.70;;
76228;SDS011;65021;53.174;18.160;2023-07-13T12:01:20;4.10;;;1.90;;
76228;SDS011;65021;53.174;18.160;2023-07-13T12:03:49;5.20;;;2.00;;
76228;SDS011;65021;53.174;18.160;2023-07-13T12:06:27;6.10;;;1.80;;
76228;SDS011;65021;53.174;18.160;2023-07-13T12:09:02;4.20;;;1.80;;
76228;SDS011;65021;53.174;18.160;2023-07-13T12:11:42;4.80;;;1.70;;
76228;SDS011;65021;53.174;18.160;2023-07-13T12:14:16;4.30;;;1.70;;
76228;SDS011;65021;53.174;18.160;2023-07-13T12:16:44;5.50;;;1.80;;
76228;SDS011;65021;53.174;18.160;2023-07-13T12:19:21;3.90;;;1.50;;
76228;SDS011;65021;53.174;18.160;2023-07-13T12:21:49;4.60;;;1.60;;
76228;SDS011;65021;53.174;18.160;2023-07-13T12:24:19;5.10;;;1.80;;
76228;SDS011;65021;53.174;18.160;2023-07-13T12:26:53;5.70;;;1.60;;
76228;SDS011;65021;53.174;18.160;2023-07-13T12:29:27;8.90;;;2.40;;
76228;SDS011;65021;53.174;18.160;2023-07-13T12:31:54;5.20;;;1.80;;
76228;SDS011;65021;53.174;18.160;2023-07-13T12:34:23;5.30;;;1.70;;
76228;SDS011;65021;53.174;18.160;2023-07-13T12:36:55;5.60;;;1.70;;
76228;SDS011;65021;53.174;18.160;2023-07-13T12:39:39;6.30;;;1.90;;
76228;SDS011;65021;53.174;18.160;2023-07-13T12:42:22;5.80;;;1.70;;
76228;SDS011;65021;53.174;18.160;2023-07-13T12:44:56;3.90;;;1.60;;
76228;SDS011;65021;53.174;18.160;2023-07-13T12:47:40;4.20;;;1.60;;
76228;SDS011;65021;53.174;18.160;2023-07-13T12:50:12;5.10;;;1.50;;
76228;SDS011;65021;53.174;18.160;2023-07-13T12:52:42;4.90;;;1.20;;
76228;SDS011;65021;53.174;18.160;2023-07-13T12:55:14;3.70;;;1.30;;
76228;SDS011;65021;53.174;18.160;2023-07-13T13:02:55;14.60;;;2.20;;
76228;SDS011;65021;53.174;18.160;2023-07-13T13:05:26;3.60;;;1.40;;
76228;SDS011;65021;53.174;18.160;2023-07-13T13:07:53;3.40;;;1.20;;
76228;SDS011;65021;53.174;18.160;2023-07-13T13:10:19;3.50;;;1.30;;
76228;SDS011;65021;53.174;18.160;2023-07-13T13:12:47;3.00;;;1.10;;
76228;SDS011;65021;53.174;18.160;2023-07-13T13:15:14;3.30;;;1.30;;
76228;SDS011;65021;53.174;18.160;2023-07-13T13:17:40;4.60;;;1.50;;
76228;SDS011;65021;53.174;18.160;2023-07-13T13:20:13;4.10;;;1.30;;
76228;SDS011;65021;53.174;18.160;2023-07-13T13:22:47;3.20;;;1.10;;
76228;SDS011;65021;53.174;18.160;2023-07-13T13:25:14;6.10;;;1.30;;
76228;SDS011;65021;53.174;18.160;2023-07-13T13:27:41;4.90;;;1.60;;
76228;SDS011;65021;53.174;18.160;2023-07-13T13:30:12;3.20;;;1.10;;
76228;SDS011;65021;53.174;18.160;2023-07-13T13:32:40;4.20;;;1.80;;
76228;SDS011;65021;53.174;18.160;2023-07-13T13:35:15;7.50;;;1.70;;
76228;SDS011;65021;53.174;18.160;2023-07-13T13:37:44;5.20;;;1.60;;
76228;SDS011;65021;53.174;18.160;2023-07-13T13:40:15;4.40;;;1.90;;
76228;SDS011;65021;53.174;18.160;2023-07-13T13:42:43;4.90;;;1.90;;
76228;SDS011;65021;53.174;18.160;2023-07-13T13:45:10;5.50;;;1.80;;
76228;SDS011;65021;53.174;18.160;2023-07-13T13:47:42;5.30;;;1.50;;
76228;SDS011;65021;53.174;18.160;2023-07-13T13:50:17;4.00;;;1.30;;
76228;SDS011;65021;53.174;18.160;2023-07-13T13:52:46;4.20;;;1.60;;
76228;SDS011;65021;53.174;18.160;2023-07-13T13:55:17;4.80;;;1.70;;
76228;SDS011;65021;53.174;18.160;2023-07-13T13:57:46;4.30;;;1.60;;
76228;SDS011;65021;53.174;18.160;2023-07-13T14:00:13;6.20;;;1.80;;
76228;SDS011;65021;53.174;18.160;2023-07-13T14:02:42;4.60;;;1.50;;
76228;SDS011;65021;53.174;18.160;2023-07-13T14:05:14;4.50;;;1.40;;
76228;SDS011;65021;53.174;18.160;2023-07-13T14:07:44;5.30;;;1.70;;
76228;SDS011;65021;53.174;18.160;2023-07-13T14:10:11;4.60;;;1.60;;
76228;SDS011;65021;53.174;18.160;2023-07-13T14:12:42;4.00;;;1.40;;
76228;SDS011;65021;53.174;18.160;2023-07-13T14:15:15;4.90;;;1.90;;
76228;SDS011;65021;53.174;18.160;2023-07-13T14:17:48;4.10;;;1.60;;
76228;SDS011;65021;53.174;18.160;2023-07-13T14:20:19;4.80;;;1.50;;
76228;SDS011;65021;53.174;18.160;2023-07-13T14:22:48;4.10;;;1.50;;
76228;SDS011;65021;53.174;18.160;2023-07-13T14:25:16;6.10;;;1.50;;
76228;SDS011;65021;53.174;18.160;2023-07-13T14:27:44;3.60;;;1.40;;
76228;SDS011;65021;53.174;18.160;2023-07-13T14:30:15;4.20;;;1.70;;
76228;SDS011;65021;53.174;18.160;2023-07-13T14:32:43;5.60;;;1.80;;
76228;SDS011;65021;53.174;18.160;2023-07-13T14:35:13;5.80;;;2.10;;
76228;SDS011;65021;53.174;18.160;2023-07-13T14:37:41;5.80;;;1.90;;
76228;SDS011;65021;53.174;18.160;2023-07-13T14:40:21;4.90;;;1.90;;
76228;SDS011;65021;53.174;18.160;2023-07-13T14:42:53;5.30;;;1.80;;
76228;SDS011;65021;53.174;18.160;2023-07-13T14:45:20;5.50;;;1.90;;
76228;SDS011;65021;53.174;18.160;2023-07-13T14:47:47;5.70;;;1.60;;
76228;SDS011;65021;53.174;18.160;2023-07-13T14:50:26;4.50;;;2.10;;
76228;SDS011;65021;53.174;18.160;2023-07-13T14:52:58;4.20;;;1.80;;
76228;SDS011;65021;53.174;18.160;2023-07-13T14:55:24;5.70;;;1.90;;
76228;SDS011;65021;53.174;18.160;2023-07-13T14:57:52;6.40;;;2.00;;
76228;SDS011;65021;53.174;18.160;2023-07-13T15:00:19;8.90;;;1.90;;
76228;SDS011;65021;53.174;18.160;2023-07-13T15:02:47;4.90;;;1.70;;
76228;SDS011;65021;53.174;18.160;2023-07-13T15:05:20;4.90;;;1.60;;
76228;SDS011;65021;53.174;18.160;2023-07-13T15:07:52;6.20;;;1.60;;
76228;SDS011;65021;53.174;18.160;2023-07-13T15:10:20;4.20;;;1.50;;
76228;SDS011;65021;53.174;18.160;2023-07-13T15:12:52;3.90;;;1.60;;
76228;SDS011;65021;53.174;18.160;2023-07-13T15:15:19;5.10;;;1.50;;
76228;SDS011;65021;53.174;18.160;2023-07-13T15:17:46;3.50;;;1.60;;
76228;SDS011;65021;53.174;18.160;2023-07-13T15:23:01;3.10;;;0.90;;
76228;SDS011;65021;53.174;18.160;2023-07-13T15:25:29;3.20;;;1.10;;
76228;SDS011;65021;53.174;18.160;2023-07-13T15:27:59;3.80;;;1.00;;
76228;SDS011;65021;53.174;18.160;2023-07-13T15:30:31;4.10;;;1.00;;
76228;SDS011;65021;53.174;18.160;2023-07-13T15:33:14;3.30;;;1.00;;
76228;SDS011;65021;53.174;18.160;2023-07-13T15:35:43;3.60;;;1.10;;
76228;SDS011;65021;53.174;18.160;2023-07-13T15:38:20;2.90;;;1.00;;
76228;SDS011;65021;53.174;18.160;2023-07-13T15:40:53;4.30;;;1.20;;
76228;SDS011;65021;53.174;18.160;2023-07-13T15:43:22;3.80;;;1.10;;
76228;SDS011;65021;53.174;18.160;2023-07-13T15:45:49;5.50;;;0.80;;
76228;SDS011;65021;53.174;18.160;2023-07-13T15:48:21;2.60;;;1.00;;
76228;SDS011;65021;53.174;18.160;2023-07-13T15:51:11;3.80;;;1.30;;
76228;SDS011;65021;53.174;18.160;2023-07-13T15:53:39;3.50;;;1.10;;
76228;SDS011;65021;53.174;18.160;2023-07-13T15:59:04;3.00;;;0.90;;
76228;SDS011;65021;53.174;18.160;2023-07-13T16:01:30;2.90;;;0.90;;
76228;SDS011;65021;53.174;18.160;2023-07-13T16:03:58;3.00;;;0.80;;
76228;SDS011;65021;53.174;18.160;2023-07-13T16:06:28;2.30;;;0.80;;